Time;durP1;ratioP1;P1;durP2;ratioP2;P2;SDS_P1;SDS_P2;PMS_P1;PMS_P2;Temp;Humidity;BMP_temperature;BMP_pressure;BME280_temperature;BME280_humidity;BME280_pressure;Samples;Min_cycle;Max_cycle;Signal;HPM_P1;HPM_P2
2020/12/20 00:01:58;;;;;;;14.80;11.07;;;16.60;49.90;;;;;;5054204;28;20028;-71
2020/12/20 00:04:25;;;;;;;14.75;10.55;;;16.60;49.70;;;;;;5046050;28;20052;-71
2020/12/20 00:06:51;;;;;;;13.65;11.93;;;16.50;49.90;;;;;;5037247;28;20017;-71
2020/12/20 00:09:20;;;;;;;14.02;12.50;;;16.50;49.70;;;;;;5038462;28;20048;-70
2020/12/20 00:11:49;;;;;;;16.38;11.40;;;16.50;49.80;;;;;;5053936;28;20461;-71
2020/12/20 00:14:28;;;;;;;11.98;9.55;;;16.40;49.70;;;;;;5036340;28;20263;-71
2020/12/20 00:17:05;;;;;;;12.40;9.30;;;16.40;49.80;;;;;;5045961;28;20043;-71
2020/12/20 00:19:33;;;;;;;11.18;9.45;;;16.50;49.90;;;;;;5054989;28;20025;-72
2020/12/20 00:22:01;;;;;;;11.93;8.35;;;16.40;49.80;;;;;;5038847;28;20048;-71
2020/12/20 00:24:29;;;;;;;9.43;8.40;;;16.40;49.90;;;;;;5056120;28;20021;-71
2020/12/20 00:26:56;;;;;;;10.25;8.60;;;16.40;50.50;;;;;;5055548;28;20447;-72
2020/12/20 00:29:23;;;;;;;12.77;10.40;;;16.50;50.00;;;;;;5052935;28;20501;-72
2020/12/20 00:31:50;;;;;;;14.07;10.02;;;16.60;50.10;;;;;;5054679;28;20024;-72
2020/12/20 00:34:17;;;;;;;11.35;8.98;;;16.50;50.30;;;;;;5044450;28;20158;-74
2020/12/20 00:36:48;;;;;;;11.10;7.90;;;16.50;50.30;;;;;;5054684;28;20355;-71
2020/12/20 00:39:16;;;;;;;11.25;8.80;;;16.40;50.00;;;;;;5052336;28;20412;-71
2020/12/20 00:41:48;;;;;;;10.68;7.80;;;16.20;50.30;;;;;;5053250;28;20013;-70
2020/12/20 00:44:14;;;;;;;17.13;8.18;;;16.10;50.10;;;;;;5051384;28;20025;-71
2020/12/20 00:46:41;;;;;;;10.95;7.47;;;16.00;50.00;;;;;;5051041;28;20162;-72
2020/12/20 00:49:07;;;;;;;14.88;9.32;;;15.80;50.80;;;;;;5050224;28;20036;-71
2020/12/20 00:51:34;;;;;;;10.70;8.32;;;15.60;50.80;;;;;;5051665;28;20098;-72
2020/12/20 00:54:00;;;;;;;10.75;8.00;;;15.50;51.10;;;;;;5053970;28;20162;-71
2020/12/20 00:56:27;;;;;;;9.25;8.30;;;15.30;51.50;;;;;;5029519;28;20021;-70
2020/12/20 00:58:54;;;;;;;13.65;9.65;;;15.20;50.60;;;;;;5052970;28;20162;-70
2020/12/20 01:01:22;;;;;;;10.60;8.68;;;15.20;51.00;;;;;;5048439;28;20029;-70
2020/12/20 01:03:48;;;;;;;13.52;9.50;;;15.00;50.80;;;;;;5038128;28;20086;-71
2020/12/20 01:06:18;;;;;;;11.80;8.38;;;14.90;51.10;;;;;;5045922;28;20025;-71
2020/12/20 01:08:45;;;;;;;12.60;8.65;;;14.70;51.10;;;;;;5026887;28;20044;-72
2020/12/20 01:11:12;;;;;;;12.00;9.02;;;14.60;51.30;;;;;;5052745;28;20332;-71
2020/12/20 01:13:43;;;;;;;12.68;8.43;;;14.50;51.90;;;;;;5046608;28;20115;-72
2020/12/20 01:16:23;;;;;;;13.10;8.68;;;14.30;51.70;;;;;;5033186;28;20049;-71
2020/12/20 01:18:50;;;;;;;14.50;8.88;;;14.20;52.10;;;;;;5050224;28;20024;-71
2020/12/20 01:21:17;;;;;;;12.60;8.30;;;14.10;52.50;;;;;;5049016;28;20119;-71
2020/12/20 01:23:44;;;;;;;10.80;8.07;;;13.80;53.50;;;;;;5051637;28;20017;-71
2020/12/20 01:26:10;;;;;;;13.38;8.55;;;13.70;53.30;;;;;;5046623;28;20029;-72
2020/12/20 01:28:38;;;;;;;11.13;8.00;;;13.60;52.80;;;;;;5047213;28;20021;-71
2020/12/20 01:31:05;;;;;;;13.68;8.90;;;13.50;53.00;;;;;;5048070;28;20112;-71
2020/12/20 01:33:35;;;;;;;16.58;8.63;;;13.40;54.50;;;;;;5045743;28;20112;-72
2020/12/20 01:36:05;;;;;;;11.00;8.48;;;13.20;53.60;;;;;;5051320;28;20029;-72
2020/12/20 01:38:32;;;;;;;11.60;7.90;;;13.20;53.70;;;;;;5032301;28;20056;-71
2020/12/20 01:40:59;;;;;;;9.80;7.63;;;13.10;55.00;;;;;;5053799;28;20026;-71
2020/12/20 01:43:25;;;;;;;12.13;9.30;;;12.90;55.20;;;;;;5031160;28;20344;-71
2020/12/20 01:45:52;;;;;;;18.73;11.10;;;12.80;55.20;;;;;;5053122;28;20026;-71
2020/12/20 01:48:18;;;;;;;19.17;12.35;;;12.80;54.60;;;;;;5052360;28;20029;-71
2020/12/20 01:50:45;;;;;;;16.88;12.00;;;12.70;54.10;;;;;;5050097;28;20022;-73
2020/12/20 01:53:15;;;;;;;14.90;11.63;;;12.70;54.10;;;;;;5031956;28;20025;-71
2020/12/20 01:55:45;;;;;;;14.85;10.85;;;12.70;54.80;;;;;;5035945;28;20040;-72
2020/12/20 01:58:11;;;;;;;13.95;11.40;;;12.70;55.20;;;;;;5037999;28;20033;-75
2020/12/20 02:00:38;;;;;;;15.98;10.55;;;12.80;55.70;;;;;;5059449;28;20111;-75
2020/12/20 02:03:04;;;;;;;12.48;10.38;;;12.70;55.60;;;;;;5059980;28;20489;-71
2020/12/20 02:05:30;;;;;;;14.48;10.10;;;12.70;55.80;;;;;;5058178;28;20064;-71
2020/12/20 02:07:57;;;;;;;13.63;10.10;;;12.50;55.40;;;;;;5057715;28;20040;-71
2020/12/20 02:10:23;;;;;;;18.15;11.95;;;12.40;55.50;;;;;;5037998;28;20089;-71
2020/12/20 02:12:50;;;;;;;13.93;12.15;;;12.40;56.00;;;;;;5053873;28;20083;-71
2020/12/20 02:15:16;;;;;;;18.45;11.65;;;12.30;56.10;;;;;;5054503;28;20425;-71
2020/12/20 02:17:43;;;;;;;14.15;12.43;;;12.30;56.40;;;;;;5055352;28;20018;-71
2020/12/20 02:20:09;;;;;;;17.23;13.60;;;12.20;55.80;;;;;;5052070;28;20025;-71
2020/12/20 02:22:35;;;;;;;14.40;12.02;;;12.20;57.00;;;;;;5052669;28;22276;-71
2020/12/20 02:25:02;;;;;;;15.07;12.27;;;12.30;57.80;;;;;;5052172;28;20036;-71
2020/12/20 02:27:28;;;;;;;18.30;13.38;;;12.30;57.40;;;;;;5056178;28;20519;-71
2020/12/20 02:29:55;;;;;;;14.57;12.27;;;12.20;56.90;;;;;;5053055;28;20048;-71
2020/12/20 02:32:21;;;;;;;16.83;13.40;;;12.20;57.80;;;;;;5056688;28;20459;-73
2020/12/20 02:34:48;;;;;;;17.40;11.60;;;12.00;57.00;;;;;;5053246;28;20087;-72
2020/12/20 02:37:16;;;;;;;15.73;11.15;;;12.00;58.20;;;;;;5053520;28;20025;-72
2020/12/20 02:39:43;;;;;;;12.65;11.35;;;11.90;58.90;;;;;;5056322;28;20059;-70
2020/12/20 02:42:09;;;;;;;14.88;10.77;;;11.80;58.00;;;;;;5055186;28;20025;-73
2020/12/20 02:44:36;;;;;;;14.55;12.38;;;11.60;58.70;;;;;;5052451;28;20033;-72
2020/12/20 02:47:02;;;;;;;19.20;12.55;;;11.70;59.30;;;;;;5052861;28;20100;-72
2020/12/20 02:49:28;;;;;;;19.98;14.07;;;11.90;58.70;;;;;;5054037;28;20079;-72
2020/12/20 02:51:55;;;;;;;23.10;12.77;;;11.80;58.60;;;;;;5053720;28;20028;-71
2020/12/20 02:54:21;;;;;;;17.40;13.23;;;11.80;59.20;;;;;;5052650;28;20489;-72
2020/12/20 02:56:48;;;;;;;15.98;13.75;;;12.00;59.70;;;;;;5053149;28;20064;-71
2020/12/20 02:59:14;;;;;;;16.83;14.20;;;12.00;60.80;;;;;;5038956;28;20025;-71
2020/12/20 03:01:40;;;;;;;15.07;12.90;;;12.00;59.80;;;;;;5049817;28;20057;-71
2020/12/20 03:04:07;;;;;;;16.00;13.07;;;11.80;59.10;;;;;;5050821;28;20029;-71
2020/12/20 03:06:33;;;;;;;19.33;11.88;;;11.60;59.20;;;;;;5054798;28;20025;-73
2020/12/20 03:08:59;;;;;;;13.48;12.07;;;11.40;59.70;;;;;;5056451;28;20035;-71
2020/12/20 03:11:26;;;;;;;17.80;12.93;;;11.20;59.20;;;;;;5038141;28;20029;-71
2020/12/20 03:13:52;;;;;;;19.20;12.48;;;11.30;59.90;;;;;;5054618;28;20037;-71
2020/12/20 03:16:19;;;;;;;13.70;12.30;;;11.40;60.00;;;;;;5038229;28;20028;-71
2020/12/20 03:18:45;;;;;;;19.25;13.20;;;11.40;60.40;;;;;;5055827;28;20025;-71
2020/12/20 03:21:11;;;;;;;17.40;15.52;;;11.50;60.50;;;;;;5055263;28;20029;-71
2020/12/20 03:23:38;;;;;;;15.23;13.63;;;11.40;60.50;;;;;;5051710;28;20036;-71
2020/12/20 03:26:06;;;;;;;17.73;13.63;;;11.40;61.20;;;;;;5036546;28;20366;-72
2020/12/20 03:28:34;;;;;;;21.10;12.93;;;11.40;60.90;;;;;;5038900;28;20411;-72
2020/12/20 03:31:01;;;;;;;20.15;12.98;;;11.30;61.20;;;;;;5056325;28;20083;-72
2020/12/20 03:33:27;;;;;;;17.25;13.20;;;11.40;62.00;;;;;;5038936;28;20431;-73
2020/12/20 03:35:54;;;;;;;16.00;11.70;;;11.30;61.70;;;;;;5056984;28;20052;-73
2020/12/20 03:38:20;;;;;;;13.57;10.50;;;11.40;62.10;;;;;;5056868;28;20099;-75
2020/12/20 03:40:46;;;;;;;13.52;11.77;;;11.40;61.40;;;;;;5059165;28;20027;-75
2020/12/20 03:43:13;;;;;;;12.70;11.50;;;11.20;61.00;;;;;;5049036;28;20025;-73
2020/12/20 03:45:39;;;;;;;17.52;13.07;;;11.30;62.10;;;;;;5056016;28;20110;-72
2020/12/20 03:48:06;;;;;;;14.63;11.95;;;11.40;61.80;;;;;;5055060;28;20029;-73
2020/12/20 03:50:32;;;;;;;17.05;12.88;;;11.30;61.90;;;;;;5037953;28;20493;-73
2020/12/20 03:52:59;;;;;;;16.90;12.95;;;11.30;61.60;;;;;;5055188;28;20028;-73
2020/12/20 03:55:26;;;;;;;14.30;11.88;;;11.20;62.30;;;;;;5049108;28;20211;-73
2020/12/20 03:57:52;;;;;;;18.35;13.10;;;11.30;62.80;;;;;;5055227;28;20354;-73
2020/12/20 04:00:19;;;;;;;18.60;12.20;;;11.30;62.40;;;;;;5048171;28;20028;-71
2020/12/20 04:02:45;;;;;;;14.05;11.75;;;11.20;62.30;;;;;;5054640;28;20086;-73
2020/12/20 04:05:12;;;;;;;16.88;12.65;;;11.20;61.90;;;;;;5055496;28;20425;-71
2020/12/20 04:07:38;;;;;;;15.30;11.43;;;11.10;61.80;;;;;;5055805;28;20025;-72
2020/12/20 04:10:04;;;;;;;13.85;11.55;;;11.10;62.30;;;;;;5055313;28;20124;-72
2020/12/20 04:12:31;;;;;;;16.30;14.10;;;11.10;62.70;;;;;;5053179;28;20028;-72
2020/12/20 04:14:57;;;;;;;17.10;12.88;;;11.30;62.80;;;;;;5055153;28;20451;-71
2020/12/20 04:17:23;;;;;;;19.10;12.80;;;11.20;63.00;;;;;;5053753;28;20327;-72
2020/12/20 04:19:50;;;;;;;16.33;12.15;;;11.30;62.60;;;;;;5047463;28;20078;-72
2020/12/20 04:22:16;;;;;;;17.75;12.43;;;11.20;62.00;;;;;;5052054;28;20032;-71
2020/12/20 04:24:43;;;;;;;15.52;11.95;;;11.10;62.90;;;;;;5053282;28;20029;-72
2020/12/20 04:27:10;;;;;;;18.17;11.77;;;11.10;62.70;;;;;;5055135;28;20028;-72
2020/12/20 04:29:36;;;;;;;16.50;12.75;;;11.00;62.50;;;;;;5054979;28;20335;-71
2020/12/20 04:32:03;;;;;;;13.27;10.82;;;10.80;62.20;;;;;;5054990;28;20053;-72
2020/12/20 04:34:29;;;;;;;14.40;12.48;;;10.60;62.60;;;;;;5053795;28;20458;-72
2020/12/20 04:36:56;;;;;;;17.23;12.48;;;10.60;62.60;;;;;;5054465;28;20017;-71
2020/12/20 04:39:22;;;;;;;16.23;13.65;;;10.60;62.70;;;;;;5055247;28;20028;-71
2020/12/20 04:41:49;;;;;;;14.82;12.88;;;10.60;63.00;;;;;;5053854;28;20036;-71
2020/12/20 04:44:15;;;;;;;15.23;13.48;;;10.60;63.00;;;;;;5053889;28;20033;-71
2020/12/20 04:46:42;;;;;;;18.15;12.75;;;10.50;62.60;;;;;;5056440;28;20024;-72
2020/12/20 04:49:11;;;;;;;20.25;14.75;;;10.50;63.20;;;;;;5054375;28;20113;-72
2020/12/20 04:51:39;;;;;;;14.35;12.70;;;10.50;63.30;;;;;;5055356;28;20029;-71
2020/12/20 04:54:06;;;;;;;21.65;13.80;;;10.50;63.60;;;;;;5035042;28;20025;-71
2020/12/20 04:56:37;;;;;;;16.27;12.60;;;10.50;64.30;;;;;;5051380;28;20434;-72
2020/12/20 04:59:07;;;;;;;14.50;13.00;;;10.50;63.70;;;;;;5049039;28;20434;-71
2020/12/20 05:01:34;;;;;;;15.75;13.30;;;10.70;64.90;;;;;;5034354;28;22038;-71
2020/12/20 05:04:01;;;;;;;16.63;12.75;;;10.60;64.20;;;;;;5050129;28;20417;-70
2020/12/20 05:06:30;;;;;;;13.35;12.00;;;10.50;64.20;;;;;;5050509;28;20033;-72
2020/12/20 05:09:04;;;;;;;20.10;14.27;;;10.60;64.30;;;;;;5052481;28;20096;-72
2020/12/20 05:11:38;;;;;;;17.73;14.32;;;10.60;65.00;;;;;;5035755;28;20025;-73
2020/12/20 05:14:06;;;;;;;14.68;11.90;;;10.70;64.90;;;;;;5037707;28;20029;-72
2020/12/20 05:16:37;;;;;;;13.25;11.02;;;10.60;64.60;;;;;;5052659;28;20032;-71
2020/12/20 05:19:06;;;;;;;15.40;12.60;;;10.50;64.10;;;;;;5052216;28;20025;-71
2020/12/20 05:21:34;;;;;;;14.60;12.32;;;10.40;64.40;;;;;;5054759;28;20037;-71
2020/12/20 05:24:20;;;;;;;17.88;13.65;;;10.40;64.40;;;;;;5054579;28;20814;-71
2020/12/20 05:26:47;;;;;;;19.20;11.80;;;10.40;64.40;;;;;;5052328;28;20033;-71
2020/12/20 05:29:14;;;;;;;15.98;13.25;;;10.60;65.40;;;;;;5053667;28;20120;-71
2020/12/20 05:31:41;;;;;;;12.90;11.45;;;10.60;64.30;;;;;;5048004;28;20029;-70
2020/12/20 05:34:07;;;;;;;15.88;11.38;;;10.40;64.10;;;;;;5034347;28;20043;-70
2020/12/20 05:36:34;;;;;;;14.43;12.55;;;10.30;64.60;;;;;;5055133;28;20074;-70
2020/12/20 05:39:17;;;;;;;16.20;13.43;;;10.40;64.60;;;;;;5053522;28;20060;-71
2020/12/20 05:41:44;;;;;;;19.25;14.18;;;10.40;64.50;;;;;;5054857;28;20096;-71
2020/12/20 05:44:17;;;;;;;16.10;12.85;;;10.40;64.90;;;;;;5050217;28;20033;-71
2020/12/20 05:46:45;;;;;;;21.83;15.30;;;10.30;64.50;;;;;;5055578;28;20136;-71
2020/12/20 05:49:16;;;;;;;19.42;13.93;;;10.40;65.00;;;;;;5054354;28;20028;-71
2020/12/20 05:52:09;;;;;;;14.95;13.35;;;10.50;64.90;;;;;;5055175;28;20024;-71
2020/12/20 05:54:41;;;;;;;20.65;13.95;;;10.40;64.60;;;;;;5056594;28;20057;-72
2020/12/20 05:57:15;;;;;;;17.45;13.38;;;10.30;65.00;;;;;;5048552;28;20067;-72
2020/12/20 05:59:44;;;;;;;14.93;13.23;;;10.20;65.30;;;;;;5032187;28;20049;-71
2020/12/20 06:02:12;;;;;;;16.42;13.00;;;10.10;65.20;;;;;;5050526;28;20025;-70
2020/12/20 06:04:39;;;;;;;15.70;14.10;;;10.10;65.40;;;;;;5054648;28;20327;-70
2020/12/20 06:07:10;;;;;;;13.38;12.05;;;10.20;65.70;;;;;;5053919;28;20029;-71
2020/12/20 06:09:53;;;;;;;15.40;13.18;;;10.00;65.60;;;;;;5049683;28;20029;-70
2020/12/20 06:12:22;;;;;;;22.25;16.02;;;10.10;65.80;;;;;;5050479;28;20021;-71
2020/12/20 06:14:49;;;;;;;17.98;16.02;;;10.00;65.40;;;;;;5050296;28;20036;-72
2020/12/20 06:17:21;;;;;;;19.55;16.67;;;9.90;65.70;;;;;;5057416;28;20026;-71
2020/12/20 06:20:08;;;;;;;16.00;14.27;;;9.90;66.10;;;;;;5057050;28;20036;-71
2020/12/20 06:22:36;;;;;;;16.17;14.48;;;10.00;66.10;;;;;;5034914;28;20374;-71
2020/12/20 06:25:05;;;;;;;17.52;14.82;;;9.90;65.50;;;;;;5057275;28;20039;-71
2020/12/20 06:27:34;;;;;;;16.35;14.35;;;9.80;65.70;;;;;;5039089;28;20052;-71
2020/12/20 06:30:04;;;;;;;18.00;14.80;;;9.70;65.90;;;;;;5056787;28;20027;-70
2020/12/20 06:32:46;;;;;;;21.23;15.55;;;9.70;66.00;;;;;;5056754;28;20040;-71
2020/12/20 06:35:23;;;;;;;16.80;14.82;;;9.70;66.50;;;;;;5051749;28;20303;-71
2020/12/20 06:37:50;;;;;;;20.27;15.32;;;9.50;65.60;;;;;;5052385;28;20028;-70
2020/12/20 06:40:29;;;;;;;17.08;15.35;;;9.60;66.20;;;;;;5046733;28;20029;-70
2020/12/20 06:42:57;;;;;;;21.38;18.10;;;9.50;66.10;;;;;;5044158;28;20025;-70
2020/12/20 06:45:24;;;;;;;21.70;19.40;;;9.60;66.20;;;;;;5054845;28;20025;-70
2020/12/20 06:48:01;;;;;;;20.98;17.73;;;9.60;66.80;;;;;;5056634;28;20028;-69
2020/12/20 06:50:36;;;;;;;25.85;20.13;;;9.60;66.40;;;;;;5039325;28;20032;-71
2020/12/20 06:53:02;;;;;;;26.70;18.38;;;9.60;67.30;;;;;;5056438;28;20127;-71
2020/12/20 06:55:29;;;;;;;19.73;17.52;;;9.60;67.00;;;;;;5056042;28;20017;-71
2020/12/20 06:58:04;;;;;;;19.85;17.85;;;9.60;67.20;;;;;;5056747;28;20352;-70
2020/12/20 07:00:56;;;;;;;21.95;19.55;;;9.70;67.50;;;;;;5058264;28;20118;-74
2020/12/20 07:03:25;;;;;;;20.42;17.42;;;9.80;67.70;;;;;;5058510;28;20032;-70
2020/12/20 07:05:56;;;;;;;26.80;18.08;;;9.80;66.90;;;;;;5051407;28;20336;-71
2020/12/20 07:08:26;;;;;;;19.55;15.65;;;9.60;66.90;;;;;;5049780;28;20025;-70
2020/12/20 07:10:56;;;;;;;20.20;15.48;;;9.70;67.30;;;;;;5038642;28;20427;-71
2020/12/20 07:13:40;;;;;;;20.48;17.20;;;9.50;66.60;;;;;;5056816;28;20009;-70
2020/12/20 07:16:14;;;;;;;25.15;20.02;;;9.60;67.10;;;;;;5054920;28;20358;-70
2020/12/20 07:18:44;;;;;;;22.73;17.55;;;9.40;67.10;;;;;;5042911;28;20028;-70
2020/12/20 07:21:20;;;;;;;24.40;17.60;;;9.50;67.50;;;;;;5056066;28;20040;-70
2020/12/20 07:23:54;;;;;;;23.17;17.92;;;9.50;67.20;;;;;;5051810;28;20021;-70
2020/12/20 07:26:21;;;;;;;22.88;20.33;;;9.40;67.60;;;;;;5034659;28;20035;-71
2020/12/20 07:28:48;;;;;;;22.77;20.40;;;9.40;67.70;;;;;;5055343;28;20021;-70
2020/12/20 07:31:17;;;;;;;23.42;19.60;;;9.30;67.80;;;;;;5038147;28;20450;-70
2020/12/20 07:33:44;;;;;;;25.10;19.67;;;9.30;68.20;;;;;;5055790;28;20355;-71
2020/12/20 07:36:11;;;;;;;24.90;21.35;;;9.30;68.40;;;;;;5055556;28;20108;-71
2020/12/20 07:38:38;;;;;;;24.17;21.13;;;9.30;68.10;;;;;;5046634;28;20036;-70
2020/12/20 07:41:11;;;;;;;23.50;20.80;;;9.20;67.80;;;;;;5055955;28;20029;-70
2020/12/20 07:43:38;;;;;;;23.00;20.70;;;9.20;67.90;;;;;;5055867;28;20032;-71
2020/12/20 07:46:07;;;;;;;23.92;21.38;;;9.10;67.80;;;;;;5054604;28;20040;-70
2020/12/20 07:48:34;;;;;;;32.97;24.13;;;9.00;68.40;;;;;;5050657;28;20037;-71
2020/12/20 07:51:26;;;;;;;32.10;24.05;;;9.10;69.10;;;;;;5051818;28;20036;-70
2020/12/20 07:53:55;;;;;;;35.63;26.20;;;9.20;68.80;;;;;;5049936;28;20040;-71
2020/12/20 07:56:30;;;;;;;30.27;24.58;;;9.30;68.70;;;;;;5036339;28;20025;-70
2020/12/20 07:58:58;;;;;;;30.65;25.70;;;9.30;68.60;;;;;;5046498;28;20043;-70
2020/12/20 08:01:25;;;;;;;33.47;26.75;;;9.20;68.60;;;;;;5054414;28;20070;-71
2020/12/20 08:04:03;;;;;;;34.38;26.35;;;9.10;68.80;;;;;;5047116;28;20106;-71
2020/12/20 08:06:30;;;;;;;33.90;26.95;;;9.10;69.10;;;;;;5056077;28;20021;-73
2020/12/20 08:09:07;;;;;;;40.08;29.60;;;9.10;69.40;;;;;;5037225;28;20029;-72
2020/12/20 08:11:34;;;;;;;42.58;29.95;;;9.10;69.60;;;;;;5053744;28;20511;-71
2020/12/20 08:14:03;;;;;;;35.17;28.27;;;9.20;70.50;;;;;;5054789;28;20051;-71
2020/12/20 08:16:34;;;;;;;35.60;27.70;;;9.10;70.10;;;;;;5055077;28;20056;-71
2020/12/20 08:19:04;;;;;;;34.20;28.13;;;9.10;70.40;;;;;;5037100;28;20039;-71
2020/12/20 08:21:54;;;;;;;35.33;27.23;;;9.10;70.40;;;;;;5059909;28;20047;-72
2020/12/20 08:24:22;;;;;;;38.92;28.65;;;9.00;69.60;;;;;;5056503;28;20029;-71
2020/12/20 08:26:49;;;;;;;34.03;28.20;;;9.00;70.00;;;;;;5054494;28;20099;-71
2020/12/20 08:29:18;;;;;;;38.92;27.88;;;9.00;70.50;;;;;;5047644;28;20420;-71
2020/12/20 08:31:46;;;;;;;33.75;26.70;;;9.00;70.40;;;;;;5049509;28;20041;-71
2020/12/20 08:34:23;;;;;;;41.78;31.50;;;8.90;70.30;;;;;;5054434;28;20456;-71
2020/12/20 08:36:52;;;;;;;39.25;30.70;;;9.00;70.70;;;;;;5041167;28;20020;-71
2020/12/20 08:39:25;;;;;;;37.03;29.80;;;9.10;70.30;;;;;;5054341;28;20327;-71
2020/12/20 08:42:06;;;;;;;40.00;29.55;;;9.20;70.40;;;;;;5054625;28;20021;-71
2020/12/20 08:44:33;;;;;;;43.42;30.80;;;9.20;70.10;;;;;;5054078;28;20488;-71
2020/12/20 08:47:11;;;;;;;38.13;28.27;;;9.10;70.60;;;;;;5054946;28;20076;-71
2020/12/20 08:49:57;;;;;;;38.35;30.38;;;9.00;70.10;;;;;;5048120;28;20040;-71
2020/12/20 08:52:27;;;;;;;42.33;28.23;;;8.90;70.20;;;;;;5054186;28;20017;-71
2020/12/20 08:54:55;;;;;;;37.40;29.05;;;8.90;70.70;;;;;;5054771;28;20025;-71
2020/12/20 08:57:31;;;;;;;32.10;27.48;;;8.80;70.30;;;;;;5054894;28;20021;-71
2020/12/20 09:00:13;;;;;;;32.33;25.75;;;8.70;70.80;;;;;;5036912;28;20035;-71
2020/12/20 09:02:41;;;;;;;33.22;28.05;;;8.80;71.10;;;;;;5048086;28;20419;-71
2020/12/20 09:05:13;;;;;;;31.35;24.17;;;8.90;70.90;;;;;;5048353;28;20458;-71
2020/12/20 09:07:44;;;;;;;28.00;23.73;;;8.90;70.70;;;;;;5051798;28;20039;-71
2020/12/20 09:10:12;;;;;;;24.58;21.95;;;9.00;70.90;;;;;;5052569;28;20040;-71
2020/12/20 09:12:50;;;;;;;27.75;22.70;;;9.00;70.40;;;;;;5052163;28;20037;-71
2020/12/20 09:15:19;;;;;;;27.00;23.02;;;9.00;70.50;;;;;;5056551;28;20028;-72
2020/12/20 09:17:52;;;;;;;30.48;24.77;;;9.00;70.60;;;;;;5054004;28;20109;-71
2020/12/20 09:20:22;;;;;;;26.80;23.67;;;8.90;70.40;;;;;;5053248;28;20112;-72
2020/12/20 09:22:56;;;;;;;33.08;24.40;;;8.90;70.30;;;;;;5050366;28;20370;-72
2020/12/20 09:25:33;;;;;;;30.73;24.02;;;8.90;70.90;;;;;;5053699;28;20029;-71
2020/12/20 09:28:05;;;;;;;28.38;24.25;;;8.90;70.40;;;;;;5037009;28;20021;-71
2020/12/20 09:30:37;;;;;;;29.88;24.23;;;8.80;70.30;;;;;;5052763;28;20029;-70
2020/12/20 09:33:38;;;;;;;36.45;25.20;;;8.80;70.40;;;;;;5049181;28;20076;-70
2020/12/20 09:36:07;;;;;;;28.88;24.13;;;8.80;71.00;;;;;;5054174;28;20195;-71
2020/12/20 09:38:44;;;;;;;28.00;24.88;;;8.80;70.50;;;;;;5036779;28;20025;-71
2020/12/20 09:41:16;;;;;;;33.67;24.95;;;8.80;70.90;;;;;;5054257;28;20060;-71
2020/12/20 09:43:43;;;;;;;26.42;23.63;;;8.80;70.80;;;;;;5049226;28;20037;-71
2020/12/20 09:46:17;;;;;;;27.65;24.80;;;8.80;70.70;;;;;;5051106;28;20517;-71
2020/12/20 09:48:44;;;;;;;27.98;21.60;;;8.90;70.80;;;;;;5050094;28;20055;-71
2020/12/20 09:51:10;;;;;;;29.85;23.88;;;8.90;70.50;;;;;;5052547;28;20047;-71
2020/12/20 09:53:37;;;;;;;29.73;23.48;;;8.80;70.70;;;;;;5048587;28;20017;-71
2020/12/20 09:56:03;;;;;;;26.38;21.83;;;8.80;70.50;;;;;;5034745;28;20033;-71
2020/12/20 09:58:30;;;;;;;31.92;24.95;;;8.70;70.70;;;;;;5048349;28;20104;-71
2020/12/20 10:00:56;;;;;;;28.83;24.05;;;8.70;71.20;;;;;;5031533;28;20021;-70
2020/12/20 10:03:24;;;;;;;25.38;21.33;;;8.80;71.50;;;;;;5053315;28;20028;-71
2020/12/20 10:05:54;;;;;;;25.70;22.65;;;8.80;71.00;;;;;;5053864;28;20052;-71
2020/12/20 10:08:21;;;;;;;24.98;21.33;;;8.90;70.70;;;;;;5050910;28;20120;-71
2020/12/20 10:10:49;;;;;;;28.75;22.20;;;8.90;70.00;;;;;;5038404;28;20024;-71
2020/12/20 10:13:15;;;;;;;27.52;23.20;;;8.80;70.70;;;;;;5057270;28;20446;-72
2020/12/20 10:15:42;;;;;;;30.48;25.50;;;8.70;70.20;;;;;;5035514;28;20447;-71
2020/12/20 10:18:09;;;;;;;32.00;23.58;;;8.60;70.80;;;;;;5025022;28;20467;-71
2020/12/20 10:20:35;;;;;;;32.05;25.20;;;8.70;70.60;;;;;;5035887;28;20025;-72
2020/12/20 10:23:02;;;;;;;29.67;21.83;;;8.70;70.60;;;;;;5028032;28;20336;-71
2020/12/20 10:25:29;;;;;;;25.15;20.77;;;8.50;70.30;;;;;;5037019;28;20344;-71
2020/12/20 10:27:56;;;;;;;28.40;23.52;;;8.30;70.90;;;;;;5031389;28;20030;-71
2020/12/20 10:30:23;;;;;;;32.45;24.52;;;8.50;71.30;;;;;;5030239;28;20043;-71
2020/12/20 10:32:50;;;;;;;31.75;23.95;;;8.60;71.30;;;;;;5033966;28;20025;-71
2020/12/20 10:35:17;;;;;;;33.55;24.52;;;8.60;71.10;;;;;;5031308;28;20033;-71
2020/12/20 10:37:44;;;;;;;31.98;25.48;;;8.70;71.20;;;;;;5031304;28;20121;-71
2020/12/20 10:40:11;;;;;;;25.55;22.85;;;8.60;71.10;;;;;;5033382;28;20091;-71
2020/12/20 10:42:38;;;;;;;26.08;22.13;;;8.70;71.80;;;;;;5029792;28;20104;-71
2020/12/20 10:45:05;;;;;;;29.73;22.42;;;8.70;71.20;;;;;;5027382;28;20026;-71
2020/12/20 10:47:31;;;;;;;27.35;22.88;;;8.70;70.90;;;;;;5032403;28;20029;-71
2020/12/20 10:49:57;;;;;;;26.92;23.02;;;8.70;70.70;;;;;;5032798;28;20440;-71
2020/12/20 10:52:24;;;;;;;27.75;23.60;;;8.70;70.50;;;;;;5034541;28;20084;-71
2020/12/20 10:54:50;;;;;;;26.23;22.45;;;8.50;70.80;;;;;;5033852;28;20025;-71
2020/12/20 10:57:17;;;;;;;25.08;21.88;;;8.40;71.10;;;;;;5035775;28;20095;-71
2020/12/20 10:59:43;;;;;;;26.38;21.52;;;8.40;71.90;;;;;;5029453;28;20044;-71
2020/12/20 11:02:09;;;;;;;27.55;21.38;;;8.50;72.10;;;;;;5034502;28;20029;-71
2020/12/20 11:04:36;;;;;;;23.77;21.38;;;8.50;71.80;;;;;;5032687;28;20363;-71
2020/12/20 11:07:03;;;;;;;22.38;19.98;;;8.60;71.50;;;;;;5031148;28;20087;-73
2020/12/20 11:09:30;;;;;;;22.75;19.23;;;8.60;70.90;;;;;;5035232;28;20034;-71
2020/12/20 11:11:56;;;;;;;28.60;20.95;;;8.40;70.90;;;;;;5032089;28;20108;-71
2020/12/20 11:14:24;;;;;;;23.30;20.77;;;8.40;71.40;;;;;;5034901;28;20025;-73
2020/12/20 11:16:51;;;;;;;23.90;20.42;;;8.50;71.40;;;;;;5036475;28;20347;-71
2020/12/20 11:19:19;;;;;;;28.27;22.27;;;8.60;70.70;;;;;;5017624;28;20044;-71
2020/12/20 11:21:54;;;;;;;23.95;21.08;;;8.50;70.60;;;;;;5018771;28;20534;-71
2020/12/20 11:24:21;;;;;;;23.80;21.25;;;8.50;70.60;;;;;;5036448;28;20414;-73
2020/12/20 11:26:49;;;;;;;26.10;21.65;;;8.40;71.00;;;;;;5040325;28;20029;-73
2020/12/20 11:29:16;;;;;;;23.38;20.95;;;8.40;71.60;;;;;;5039498;28;20026;-72
2020/12/20 11:31:43;;;;;;;22.02;18.95;;;8.40;71.80;;;;;;5037154;28;20033;-72
2020/12/20 11:34:10;;;;;;;22.08;19.77;;;8.30;71.30;;;;;;5035335;28;20036;-72
2020/12/20 11:36:41;;;;;;;22.80;20.13;;;8.30;71.70;;;;;;5036139;28;20351;-71
2020/12/20 11:39:09;;;;;;;20.35;17.63;;;8.30;71.90;;;;;;5017702;28;20056;-71
2020/12/20 11:41:35;;;;;;;19.20;17.35;;;8.40;71.50;;;;;;5018811;28;20566;-71
2020/12/20 11:44:02;;;;;;;19.17;16.70;;;8.30;71.00;;;;;;5032004;28;20517;-72
2020/12/20 11:46:29;;;;;;;20.20;18.00;;;8.20;71.30;;;;;;5027510;28;20022;-71
2020/12/20 11:48:56;;;;;;;20.13;18.08;;;8.20;71.60;;;;;;5032610;28;20028;-71
2020/12/20 11:51:26;;;;;;;20.67;16.08;;;8.10;71.30;;;;;;5017515;28;20044;-71
2020/12/20 11:53:54;;;;;;;19.13;17.13;;;7.90;71.80;;;;;;5032055;28;20353;-71
2020/12/20 11:56:21;;;;;;;17.30;15.40;;;8.00;71.80;;;;;;5033187;28;20045;-72
2020/12/20 11:58:47;;;;;;;18.10;16.17;;;7.90;71.70;;;;;;5034998;28;20044;-71
2020/12/20 12:01:24;;;;;;;17.55;15.82;;;7.90;71.80;;;;;;5034908;28;20017;-71
2020/12/20 12:03:51;;;;;;;21.15;16.70;;;7.90;71.50;;;;;;5030033;28;20367;-72
2020/12/20 12:06:17;;;;;;;15.77;14.07;;;7.90;71.60;;;;;;5035379;28;20025;-71
2020/12/20 12:08:45;;;;;;;16.05;14.45;;;8.00;70.90;;;;;;5032434;28;20057;-71
2020/12/20 12:11:18;;;;;;;20.00;15.60;;;8.00;71.50;;;;;;5035717;28;20351;-71
2020/12/20 12:13:44;;;;;;;18.42;15.75;;;8.10;71.50;;;;;;5034285;28;20475;-71
2020/12/20 12:16:11;;;;;;;17.10;15.40;;;8.00;71.30;;;;;;5034516;28;20051;-71
2020/12/20 12:18:37;;;;;;;19.65;15.90;;;7.90;72.10;;;;;;5018265;28;20516;-71
2020/12/20 12:21:03;;;;;;;19.27;16.02;;;8.10;71.80;;;;;;5033924;28;20112;-71
2020/12/20 12:23:30;;;;;;;17.60;15.80;;;8.20;71.50;;;;;;5034092;28;20029;-71
2020/12/20 12:25:56;;;;;;;17.38;15.70;;;8.10;71.30;;;;;;5035250;28;20028;-71
2020/12/20 12:28:23;;;;;;;20.73;16.73;;;8.10;71.20;;;;;;5034095;28;20410;-71
2020/12/20 12:30:49;;;;;;;19.70;15.75;;;8.10;70.90;;;;;;5033243;28;20056;-71
2020/12/20 12:33:15;;;;;;;16.58;14.50;;;8.10;71.20;;;;;;5033878;28;20068;-71
2020/12/20 12:35:42;;;;;;;22.85;17.50;;;8.00;70.80;;;;;;5033653;28;20404;-72
2020/12/20 12:38:08;;;;;;;19.27;17.38;;;8.00;71.20;;;;;;5034148;28;20032;-73
2020/12/20 12:40:35;;;;;;;21.38;17.88;;;7.90;71.50;;;;;;5033990;28;20040;-71
2020/12/20 12:43:01;;;;;;;19.77;17.63;;;8.00;71.90;;;;;;5035154;28;20599;-71